sensor_id;sensor_type;location;lat;lon;timestamp;pressure;altitude;pressure_sealevel;temperature;humidity
77662;BME280;69666;52.136;5.424;2023-05-21T00:00:31;102076.53;;;16.73;62.50
77662;BME280;69666;52.136;5.424;2023-05-21T00:02:57;102076.66;;;16.70;62.46
77662;BME280;69666;52.136;5.424;2023-05-21T00:05:24;102077.66;;;16.67;62.80
77662;BME280;69666;52.136;5.424;2023-05-21T00:07:51;102079.41;;;16.68;62.84
77662;BME280;69666;52.136;5.424;2023-05-21T00:10:20;102068.78;;;16.65;63.14
77662;BME280;69666;52.136;5.424;2023-05-21T00:12:46;102070.59;;;16.65;62.28
77662;BME280;69666;52.136;5.424;2023-05-21T00:15:13;102068.03;;;16.62;63.24
77662;BME280;69666;52.136;5.424;2023-05-21T00:17:40;102074.31;;;16.61;63.27
77662;BME280;69666;52.136;5.424;2023-05-21T00:20:07;102075.25;;;16.60;62.81
77662;BME280;69666;52.136;5.424;2023-05-21T00:22:34;102073.59;;;16.56;63.36
77662;BME280;69666;52.136;5.424;2023-05-21T00:25:02;102067.22;;;16.58;63.01
77662;BME280;69666;52.136;5.424;2023-05-21T00:27:29;102067.34;;;16.55;63.67
77662;BME280;69666;52.136;5.424;2023-05-21T00:29:55;102067.44;;;16.54;63.79
77662;BME280;69666;52.136;5.424;2023-05-21T00:32:22;102060.34;;;16.51;64.38
77662;BME280;69666;52.136;5.424;2023-05-21T00:34:49;102054.09;;;16.51;64.28
77662;BME280;69666;52.136;5.424;2023-05-21T00:37:15;102048.72;;;16.51;64.17
77662;BME280;69666;52.136;5.424;2023-05-21T00:39:42;102054.09;;;16.51;64.06
77662;BME280;69666;52.136;5.424;2023-05-21T00:42:08;102055.97;;;16.49;64.09
77662;BME280;69666;52.136;5.424;2023-05-21T00:44:35;102049.03;;;16.43;64.36
77662;BME280;69666;52.136;5.424;2023-05-21T00:47:03;102054.31;;;16.44;64.42
77662;BME280;69666;52.136;5.424;2023-05-21T00:49:31;102049.81;;;16.45;64.66
77662;BME280;69666;52.136;5.424;2023-05-21T00:51:58;102048.06;;;16.44;64.82
77662;BME280;69666;52.136;5.424;2023-05-21T00:54:27;102048.00;;;16.46;64.62
77662;BME280;69666;52.136;5.424;2023-05-21T00:56:54;102045.34;;;16.46;65.49
77662;BME280;69666;52.136;5.424;2023-05-21T00:59:22;102046.34;;;16.43;65.52
77662;BME280;69666;52.136;5.424;2023-05-21T01:01:51;102040.97;;;16.43;65.52
77662;BME280;69666;52.136;5.424;2023-05-21T01:04:22;102042.78;;;16.42;65.32
77662;BME280;69666;52.136;5.424;2023-05-21T01:06:48;102042.84;;;16.41;65.79
77662;BME280;69666;52.136;5.424;2023-05-21T01:09:15;102039.34;;;16.39;65.02
77662;BME280;69666;52.136;5.424;2023-05-21T01:11:46;102042.13;;;16.36;64.92
77662;BME280;69666;52.136;5.424;2023-05-21T01:14:16;102039.44;;;16.36;65.29
77662;BME280;69666;52.136;5.424;2023-05-21T01:16:46;102037.75;;;16.33;65.68
77662;BME280;69666;52.136;5.424;2023-05-21T01:19:19;102036.13;;;16.29;66.31
77662;BME280;69666;52.136;5.424;2023-05-21T01:22:00;102027.97;;;16.32;66.38
77662;BME280;69666;52.136;5.424;2023-05-21T01:24:29;102029.81;;;16.30;66.76
77662;BME280;69666;52.136;5.424;2023-05-21T01:26:58;102026.44;;;16.25;66.41
77662;BME280;69666;52.136;5.424;2023-05-21T01:29:24;102028.19;;;16.26;66.62
77662;BME280;69666;52.136;5.424;2023-05-21T01:32:11;102028.28;;;16.23;65.98
77662;BME280;69666;52.136;5.424;2023-05-21T01:35:01;102023.88;;;16.22;66.38
77662;BME280;69666;52.136;5.424;2023-05-21T01:37:35;102028.44;;;16.20;66.04
77662;BME280;69666;52.136;5.424;2023-05-21T01:40:33;102025.84;;;16.17;67.22
77662;BME280;69666;52.136;5.424;2023-05-21T01:43:04;102020.59;;;16.14;66.87
77662;BME280;69666;52.136;5.424;2023-05-21T01:45:35;102025.03;;;16.15;67.02
77662;BME280;69666;52.136;5.424;2023-05-21T01:48:06;102023.28;;;16.14;67.32
77662;BME280;69666;52.136;5.424;2023-05-21T01:50:34;102024.22;;;16.13;67.28
77662;BME280;69666;52.136;5.424;2023-05-21T01:53:02;102025.13;;;16.12;67.56
77662;BME280;69666;52.136;5.424;2023-05-21T01:55:31;102018.88;;;16.12;67.91
77662;BME280;69666;52.136;5.424;2023-05-21T01:57:59;102026.22;;;16.08;67.78
77662;BME280;69666;52.136;5.424;2023-05-21T02:00:28;102024.44;;;16.07;67.21
77662;BME280;69666;52.136;5.424;2023-05-21T02:02:54;102018.16;;;16.08;67.98
77662;BME280;69666;52.136;5.424;2023-05-21T02:05:21;102026.31;;;16.05;67.85
77662;BME280;69666;52.136;5.424;2023-05-21T02:07:51;102017.31;;;16.06;67.70
77662;BME280;69666;52.136;5.424;2023-05-21T02:10:18;102017.44;;;16.03;67.78
77662;BME280;69666;52.136;5.424;2023-05-21T02:12:44;102021.06;;;16.02;68.41
77662;BME280;69666;52.136;5.424;2023-05-21T02:15:11;102019.28;;;16.01;67.62
77662;BME280;69666;52.136;5.424;2023-05-21T02:17:39;102014.88;;;16.00;68.27
77662;BME280;69666;52.136;5.424;2023-05-21T02:20:08;102016.81;;;15.96;68.77
77662;BME280;69666;52.136;5.424;2023-05-21T02:22:38;102019.53;;;15.95;68.72
77662;BME280;69666;52.136;5.424;2023-05-21T02:25:06;102009.72;;;15.94;69.12
77662;BME280;69666;52.136;5.424;2023-05-21T02:27:37;102010.66;;;15.93;69.78
77662;BME280;69666;52.136;5.424;2023-05-21T02:30:06;102006.34;;;15.89;69.56
77662;BME280;69666;52.136;5.424;2023-05-21T02:32:33;102017.00;;;15.90;70.06
77662;BME280;69666;52.136;5.424;2023-05-21T02:35:02;102012.59;;;15.89;69.49
77662;BME280;69666;52.136;5.424;2023-05-21T02:37:30;102016.22;;;15.88;69.70
77662;BME280;69666;52.136;5.424;2023-05-21T02:40:01;102015.50;;;15.83;70.25
77662;BME280;69666;52.136;5.424;2023-05-21T02:42:27;102019.13;;;15.82;70.14
77662;BME280;69666;52.136;5.424;2023-05-21T02:44:54;102013.00;;;15.79;70.69
77662;BME280;69666;52.136;5.424;2023-05-21T02:47:21;102016.63;;;15.78;69.98
77662;BME280;69666;52.136;5.424;2023-05-21T02:49:50;102022.97;;;15.75;70.14
77662;BME280;69666;52.136;5.424;2023-05-21T02:52:18;102014.97;;;15.74;70.47
77662;BME280;69666;52.136;5.424;2023-05-21T02:54:46;102010.53;;;15.73;70.48
77662;BME280;69666;52.136;5.424;2023-05-21T02:57:13;102010.56;;;15.71;70.62
77662;BME280;69666;52.136;5.424;2023-05-21T02:59:39;102015.06;;;15.70;71.23
77662;BME280;69666;52.136;5.424;2023-05-21T03:02:06;102010.53;;;15.73;71.55
77662;BME280;69666;52.136;5.424;2023-05-21T03:04:33;102009.75;;;15.69;70.55
77662;BME280;69666;52.136;5.424;2023-05-21T03:07:05;102017.75;;;15.70;71.27
77662;BME280;69666;52.136;5.424;2023-05-21T03:09:31;102007.91;;;15.71;71.45
77662;BME280;69666;52.136;5.424;2023-05-21T03:11:58;102006.09;;;15.72;72.22
77662;BME280;69666;52.136;5.424;2023-05-21T03:14:24;102008.78;;;15.72;72.32
77662;BME280;69666;52.136;5.424;2023-05-21T03:16:51;102010.53;;;15.73;72.38
77662;BME280;69666;52.136;5.424;2023-05-21T03:19:18;102018.63;;;15.71;71.64
77662;BME280;69666;52.136;5.424;2023-05-21T03:21:46;102009.69;;;15.70;72.01
77662;BME280;69666;52.136;5.424;2023-05-21T03:24:14;102002.56;;;15.69;72.23
77662;BME280;69666;52.136;5.424;2023-05-21T03:26:41;102003.50;;;15.68;72.90
77662;BME280;69666;52.136;5.424;2023-05-21T03:29:08;102002.72;;;15.66;72.34
77662;BME280;69666;52.136;5.424;2023-05-21T03:31:34;102000.03;;;15.66;72.41
77662;BME280;69666;52.136;5.424;2023-05-21T03:34:01;101992.97;;;15.64;72.27
77662;BME280;69666;52.136;5.424;2023-05-21T03:36:27;101990.31;;;15.62;72.90
77662;BME280;69666;52.136;5.424;2023-05-21T03:38:54;101989.50;;;15.60;73.11
77662;BME280;69666;52.136;5.424;2023-05-21T03:41:21;101992.22;;;15.59;73.05
77662;BME280;69666;52.136;5.424;2023-05-21T03:43:47;101986.94;;;15.57;73.47
77662;BME280;69666;52.136;5.424;2023-05-21T03:46:14;101994.19;;;15.55;73.79
77662;BME280;69666;52.136;5.424;2023-05-21T03:48:41;101995.78;;;15.59;73.83
77662;BME280;69666;52.136;5.424;2023-05-21T03:51:07;101992.22;;;15.59;73.38
77662;BME280;69666;52.136;5.424;2023-05-21T03:53:35;101989.56;;;15.59;72.63
77662;BME280;69666;52.136;5.424;2023-05-21T03:56:02;101995.78;;;15.59;73.32
77662;BME280;69666;52.136;5.424;2023-05-21T03:58:29;101984.13;;;15.60;73.50
77662;BME280;69666;52.136;5.424;2023-05-21T04:00:55;101987.66;;;15.62;73.97
77662;BME280;69666;52.136;5.424;2023-05-21T04:03:22;101980.53;;;15.61;74.74
77662;BME280;69666;52.136;5.424;2023-05-21T04:05:49;101989.56;;;15.59;74.31
77662;BME280;69666;52.136;5.424;2023-05-21T04:08:16;101992.38;;;15.56;74.78
77662;BME280;69666;52.136;5.424;2023-05-21T04:10:42;101983.44;;;15.55;74.89
77662;BME280;69666;52.136;5.424;2023-05-21T04:13:09;101979.03;;;15.53;75.11
77662;BME280;69666;52.136;5.424;2023-05-21T04:15:36;101988.81;;;15.54;74.94
77662;BME280;69666;52.136;5.424;2023-05-21T04:18:04;101984.44;;;15.51;75.21
77662;BME280;69666;52.136;5.424;2023-05-21T04:20:32;101989.81;;;15.51;75.24
77662;BME280;69666;52.136;5.424;2023-05-21T04:22:59;101991.56;;;15.52;74.92
77662;BME280;69666;52.136;5.424;2023-05-21T04:25:26;101989.81;;;15.51;75.00
77662;BME280;69666;52.136;5.424;2023-05-21T04:27:53;101991.59;;;15.51;75.61
77662;BME280;69666;52.136;5.424;2023-05-21T04:30:20;101985.31;;;15.52;75.38
77662;BME280;69666;52.136;5.424;2023-05-21T04:32:47;101991.56;;;15.52;73.55
77662;BME280;69666;52.136;5.424;2023-05-21T04:35:14;101990.63;;;15.53;75.15
77662;BME280;69666;52.136;5.424;2023-05-21T04:37:40;101991.56;;;15.52;75.33
77662;BME280;69666;52.136;5.424;2023-05-21T04:40:08;101996.94;;;15.52;75.09
77662;BME280;69666;52.136;5.424;2023-05-21T04:42:35;101994.19;;;15.54;75.58
77662;BME280;69666;52.136;5.424;2023-05-21T04:45:02;102000.59;;;15.50;75.40
77662;BME280;69666;52.136;5.424;2023-05-21T04:47:28;101996.88;;;15.54;75.99
77662;BME280;69666;52.136;5.424;2023-05-21T04:49:55;102002.28;;;15.52;76.02
77662;BME280;69666;52.136;5.424;2023-05-21T04:52:22;101995.16;;;15.51;76.55
77662;BME280;69666;52.136;5.424;2023-05-21T04:54:50;101994.28;;;15.51;76.06
77662;BME280;69666;52.136;5.424;2023-05-21T04:57:17;101999.59;;;15.52;76.43
77662;BME280;69666;52.136;5.424;2023-05-21T04:59:43;102001.38;;;15.53;76.23
77662;BME280;69666;52.136;5.424;2023-05-21T05:02:10;102002.22;;;15.55;76.70
77662;BME280;69666;52.136;5.424;2023-05-21T05:04:37;102003.84;;;15.59;76.79
77662;BME280;69666;52.136;5.424;2023-05-21T05:07:03;102008.28;;;15.60;76.28
77662;BME280;69666;52.136;5.424;2023-05-21T05:09:30;102009.06;;;15.64;76.62
77662;BME280;69666;52.136;5.424;2023-05-21T05:11:57;102000.13;;;15.63;76.80
77662;BME280;69666;52.136;5.424;2023-05-21T05:14:23;102012.56;;;15.66;76.15
77662;BME280;69666;52.136;5.424;2023-05-21T05:16:50;102002.72;;;15.66;76.74
77662;BME280;69666;52.136;5.424;2023-05-21T05:19:17;102004.47;;;15.67;76.35
77662;BME280;69666;52.136;5.424;2023-05-21T05:21:43;102004.34;;;15.70;77.39
77662;BME280;69666;52.136;5.424;2023-05-21T05:24:10;101999.75;;;15.74;76.56
77662;BME280;69666;52.136;5.424;2023-05-21T05:26:37;101996.06;;;15.77;76.53
77662;BME280;69666;52.136;5.424;2023-05-21T05:29:03;101996.06;;;15.77;77.40
77662;BME280;69666;52.136;5.424;2023-05-21T05:31:30;101997.81;;;15.78;76.27
77662;BME280;69666;52.136;5.424;2023-05-21T05:33:57;101996.06;;;15.77;77.27
77662;BME280;69666;52.136;5.424;2023-05-21T05:36:23;102005.78;;;15.79;77.33
77662;BME280;69666;52.136;5.424;2023-05-21T05:38:50;102009.34;;;15.80;76.65
77662;BME280;69666;52.136;5.424;2023-05-21T05:41:17;101995.16;;;15.78;76.51
77662;BME280;69666;52.136;5.424;2023-05-21T05:43:44;101995.88;;;15.81;76.87
77662;BME280;69666;52.136;5.424;2023-05-21T05:46:10;101997.59;;;15.84;76.49
77662;BME280;69666;52.136;5.424;2023-05-21T05:48:37;101986.69;;;15.88;76.59
77662;BME280;69666;52.136;5.424;2023-05-21T05:51:04;102007.91;;;15.94;76.33
77662;BME280;69666;52.136;5.424;2023-05-21T05:53:31;101999.88;;;15.94;76.68
77662;BME280;69666;52.136;5.424;2023-05-21T05:55:57;101995.38;;;15.95;76.64
77662;BME280;69666;52.136;5.424;2023-05-21T05:58:25;101991.91;;;15.91;76.50
77662;BME280;69666;52.136;5.424;2023-05-21T06:00:52;102002.78;;;15.88;76.24
77662;BME280;69666;52.136;5.424;2023-05-21T06:03:18;101998.34;;;15.87;76.54
77662;BME280;69666;52.136;5.424;2023-05-21T06:05:45;101991.88;;;15.93;75.95
77662;BME280;69666;52.136;5.424;2023-05-21T06:08:12;101993.72;;;15.91;76.79
77662;BME280;69666;52.136;5.424;2023-05-21T06:10:38;101991.75;;;15.96;76.80
77662;BME280;69666;52.136;5.424;2023-05-21T06:13:05;101984.28;;;16.04;75.66
77662;BME280;69666;52.136;5.424;2023-05-21T06:15:32;101984.75;;;16.15;76.10
77662;BME280;69666;52.136;5.424;2023-05-21T06:17:58;101986.28;;;16.22;75.78
77662;BME280;69666;52.136;5.424;2023-05-21T06:20:25;101987.56;;;16.34;76.00
77662;BME280;69666;52.136;5.424;2023-05-21T06:22:53;101978.97;;;16.48;76.22
77662;BME280;69666;52.136;5.424;2023-05-21T06:25:19;101975.50;;;16.67;75.99
77662;BME280;69666;52.136;5.424;2023-05-21T06:27:46;101978.88;;;16.94;75.32
77662;BME280;69666;52.136;5.424;2023-05-21T06:30:12;101973.44;;;17.16;75.59
77662;BME280;69666;52.136;5.424;2023-05-21T06:32:39;101979.19;;;17.29;73.83
77662;BME280;69666;52.136;5.424;2023-05-21T06:35:06;101967.38;;;17.31;72.75
77662;BME280;69666;52.136;5.424;2023-05-21T06:37:33;101976.19;;;17.35;73.13
77662;BME280;69666;52.136;5.424;2023-05-21T06:40:00;101977.09;;;17.35;72.55
77662;BME280;69666;52.136;5.424;2023-05-21T06:42:26;101976.97;;;17.38;72.71
77662;BME280;69666;52.136;5.424;2023-05-21T06:44:53;101975.84;;;17.42;72.23
77662;BME280;69666;52.136;5.424;2023-05-21T06:47:20;101975.72;;;17.45;72.40
77662;BME280;69666;52.136;5.424;2023-05-21T06:49:46;101966.59;;;17.49;72.23
77662;BME280;69666;52.136;5.424;2023-05-21T06:52:13;101976.06;;;17.58;73.32
77662;BME280;69666;52.136;5.424;2023-05-21T06:54:40;101974.19;;;17.60;72.02
77662;BME280;69666;52.136;5.424;2023-05-21T06:57:07;101969.53;;;17.64;71.82
77662;BME280;69666;52.136;5.424;2023-05-21T06:59:34;101963.91;;;17.70;72.63
77662;BME280;69666;52.136;5.424;2023-05-21T07:02:00;101971.75;;;17.74;71.80
77662;BME280;69666;52.136;5.424;2023-05-21T07:04:30;101962.09;;;17.70;71.86
77662;BME280;69666;52.136;5.424;2023-05-21T07:06:56;101966.47;;;17.73;71.59
77662;BME280;69666;52.136;5.424;2023-05-21T07:09:23;101966.53;;;17.71;71.20
77662;BME280;69666;52.136;5.424;2023-05-21T07:11:50;101961.94;;;17.73;71.54
77662;BME280;69666;52.136;5.424;2023-05-21T07:14:18;101958.16;;;17.77;71.82
77662;BME280;69666;52.136;5.424;2023-05-21T07:16:45;101955.09;;;17.85;72.15
77662;BME280;69666;52.136;5.424;2023-05-21T07:19:19;101971.88;;;17.92;71.32
77662;BME280;69666;52.136;5.424;2023-05-21T07:21:45;101966.34;;;17.95;71.61
77662;BME280;69666;52.136;5.424;2023-05-21T07:24:12;101965.91;;;18.04;71.94
77662;BME280;69666;52.136;5.424;2023-05-21T07:26:39;101978.13;;;18.11;71.70
77662;BME280;69666;52.136;5.424;2023-05-21T07:29:05;101967.09;;;18.17;71.50
77662;BME280;69666;52.136;5.424;2023-05-21T07:31:32;101968.47;;;18.26;70.85
77662;BME280;69666;52.136;5.424;2023-05-21T07:33:59;101973.75;;;18.46;71.78
77662;BME280;69666;52.136;5.424;2023-05-21T07:36:25;101967.81;;;18.58;70.14
77662;BME280;69666;52.136;5.424;2023-05-21T07:38:52;101961.94;;;18.67;70.39
77662;BME280;69666;52.136;5.424;2023-05-21T07:41:19;101967.53;;;18.81;70.19
77662;BME280;69666;52.136;5.424;2023-05-21T07:43:45;101967.22;;;18.87;69.39
77662;BME280;69666;52.136;5.424;2023-05-21T07:46:12;101966.66;;;18.98;68.71
77662;BME280;69666;52.136;5.424;2023-05-21T07:48:38;101964.16;;;19.12;68.60
77662;BME280;69666;52.136;5.424;2023-05-21T07:51:05;101961.19;;;19.17;68.12
77662;BME280;69666;52.136;5.424;2023-05-21T07:53:32;101963.31;;;19.27;68.03
77662;BME280;69666;52.136;5.424;2023-05-21T07:55:59;101962.06;;;19.52;67.93
77662;BME280;69666;52.136;5.424;2023-05-21T07:58:25;101955.00;;;19.66;67.88
77662;BME280;69666;52.136;5.424;2023-05-21T08:00:52;101948.81;;;19.80;67.40
77662;BME280;69666;52.136;5.424;2023-05-21T08:03:19;101948.34;;;19.89;67.02
77662;BME280;69666;52.136;5.424;2023-05-21T08:05:46;101942.13;;;20.03;65.91
77662;BME280;69666;52.136;5.424;2023-05-21T08:08:17;101942.88;;;20.22;65.66
77662;BME280;69666;52.136;5.424;2023-05-21T08:10:45;101935.81;;;20.35;66.00
77662;BME280;69666;52.136;5.424;2023-05-21T08:13:15;101935.03;;;20.49;64.66
77662;BME280;69666;52.136;5.424;2023-05-21T08:15:41;101933.19;;;20.65;65.97
77662;BME280;69666;52.136;5.424;2023-05-21T08:18:08;101921.81;;;20.74;65.17
77662;BME280;69666;52.136;5.424;2023-05-21T08:20:35;101934.66;;;20.71;64.52
77662;BME280;69666;52.136;5.424;2023-05-21T08:23:02;101931.69;;;20.75;64.60
77662;BME280;69666;52.136;5.424;2023-05-21T08:25:29;101931.13;;;20.85;65.57
77662;BME280;69666;52.136;5.424;2023-05-21T08:27:56;101926.13;;;20.93;65.13
77662;BME280;69666;52.136;5.424;2023-05-21T08:30:23;101935.25;;;21.06;65.29
77662;BME280;69666;52.136;5.424;2023-05-21T08:32:49;101933.28;;;21.24;65.38
77662;BME280;69666;52.136;5.424;2023-05-21T08:35:16;101938.44;;;21.28;64.37
77662;BME280;69666;52.136;5.424;2023-05-21T08:37:43;101934.31;;;21.07;63.77
77662;BME280;69666;52.136;5.424;2023-05-21T08:40:10;101925.56;;;21.02;64.77
77662;BME280;69666;52.136;5.424;2023-05-21T08:42:42;101936.34;;;20.88;63.61
77662;BME280;69666;52.136;5.424;2023-05-21T08:45:12;101930.53;;;20.80;63.44
77662;BME280;69666;52.136;5.424;2023-05-21T08:47:43;101928.03;;;20.91;64.18
77662;BME280;69666;52.136;5.424;2023-05-21T08:50:12;101941.09;;;20.98;64.75
77662;BME280;69666;52.136;5.424;2023-05-21T08:52:40;101932.94;;;21.14;64.68
77662;BME280;69666;52.136;5.424;2023-05-21T08:55:07;101937.75;;;21.25;63.77
77662;BME280;69666;52.136;5.424;2023-05-21T08:57:35;101938.84;;;21.51;64.33
77662;BME280;69666;52.136;5.424;2023-05-21T09:00:02;101937.88;;;21.80;63.41
77662;BME280;69666;52.136;5.424;2023-05-21T09:02:34;101940.91;;;22.04;62.46
77662;BME280;69666;52.136;5.424;2023-05-21T09:05:04;101943.88;;;22.28;61.51
77662;BME280;69666;52.136;5.424;2023-05-21T09:08:04;101940.50;;;22.51;60.52
77662;BME280;69666;52.136;5.424;2023-05-21T09:10:34;101941.50;;;22.77;60.80
77662;BME280;69666;52.136;5.424;2023-05-21T09:13:02;101938.41;;;22.96;59.47
77662;BME280;69666;52.136;5.424;2023-05-21T09:15:29;101933.97;;;23.07;58.68
77662;BME280;69666;52.136;5.424;2023-05-21T09:17:56;101935.19;;;23.16;59.92
77662;BME280;69666;52.136;5.424;2023-05-21T09:20:24;101922.94;;;23.23;59.38
77662;BME280;69666;52.136;5.424;2023-05-21T09:22:52;101931.16;;;23.09;56.58
77662;BME280;69666;52.136;5.424;2023-05-21T09:25:23;101928.25;;;23.12;55.84
77662;BME280;69666;52.136;5.424;2023-05-21T09:27:50;101922.50;;;23.29;56.83
77662;BME280;69666;52.136;5.424;2023-05-21T09:30:17;101921.09;;;23.36;56.42
77662;BME280;69666;52.136;5.424;2023-05-21T09:32:56;101913.31;;;23.57;56.19
77662;BME280;69666;52.136;5.424;2023-05-21T09:35:24;101912.84;;;23.63;56.39
77662;BME280;69666;52.136;5.424;2023-05-21T09:37:52;101912.53;;;23.68;55.54
77662;BME280;69666;52.136;5.424;2023-05-21T09:40:20;101911.09;;;23.75;55.20
77662;BME280;69666;52.136;5.424;2023-05-21T09:42:49;101911.06;;;24.00;56.77
77662;BME280;69666;52.136;5.424;2023-05-21T09:45:26;101899.94;;;24.03;54.78
77662;BME280;69666;52.136;5.424;2023-05-21T09:47:54;101906.44;;;24.13;53.98
77662;BME280;69666;52.136;5.424;2023-05-21T09:50:26;101900.50;;;24.08;55.30
77662;BME280;69666;52.136;5.424;2023-05-21T09:52:56;101902.84;;;24.25;56.22
77662;BME280;69666;52.136;5.424;2023-05-21T09:55:25;101888.88;;;24.43;56.02
77662;BME280;69666;52.136;5.424;2023-05-21T09:57:52;101891.28;;;24.58;53.80
77662;BME280;69666;52.136;5.424;2023-05-21T10:00:27;101891.38;;;24.81;55.13
77662;BME280;69666;52.136;5.424;2023-05-21T10:03:00;101882.09;;;24.83;53.88
77662;BME280;69666;52.136;5.424;2023-05-21T10:05:29;101873.69;;;24.86;53.79
77662;BME280;69666;52.136;5.424;2023-05-21T10:08:00;101874.56;;;24.87;54.64
77662;BME280;69666;52.136;5.424;2023-05-21T10:10:30;101868.56;;;24.94;54.43
77662;BME280;69666;52.136;5.424;2023-05-21T10:13:00;101868.06;;;25.00;53.16
77662;BME280;69666;52.136;5.424;2023-05-21T10:15:33;101870.69;;;25.13;54.09
77662;BME280;69666;52.136;5.424;2023-05-21T10:18:02;101871.78;;;25.10;53.00
77662;BME280;69666;52.136;5.424;2023-05-21T10:20:30;101869.34;;;25.07;52.11
77662;BME280;69666;52.136;5.424;2023-05-21T10:22:58;101864.28;;;25.25;52.10
77662;BME280;69666;52.136;5.424;2023-05-21T10:25:25;101865.03;;;25.38;52.86
77662;BME280;69666;52.136;5.424;2023-05-21T10:27:54;101862.91;;;25.42;50.64
77662;BME280;69666;52.136;5.424;2023-05-21T10:30:22;101853.91;;;25.41;52.31
77662;BME280;69666;52.136;5.424;2023-05-21T10:32:50;101858.47;;;25.41;51.83
77662;BME280;69666;52.136;5.424;2023-05-21T10:35:17;101855.03;;;25.61;52.06
77662;BME280;69666;52.136;5.424;2023-05-21T10:37:44;101850.31;;;25.52;50.81
77662;BME280;69666;52.136;5.424;2023-05-21T10:40:12;101853.03;;;25.30;52.10
77662;BME280;69666;52.136;5.424;2023-05-21T10:43:12;101844.69;;;25.31;51.83
77662;BME280;69666;52.136;5.424;2023-05-21T10:55:33;101850.06;;;24.87;51.94
77662;BME280;69666;52.136;5.424;2023-05-21T10:58:14;101849.38;;;24.72;54.25
77662;BME280;69666;52.136;5.424;2023-05-21T11:00:44;101852.03;;;24.85;55.75
77662;BME280;69666;52.136;5.424;2023-05-21T11:03:13;101855.06;;;24.69;52.11
77662;BME280;69666;52.136;5.424;2023-05-21T11:06:01;101841.63;;;24.44;53.15
77662;BME280;69666;52.136;5.424;2023-05-21T11:08:29;101850.94;;;24.28;53.58
77662;BME280;69666;52.136;5.424;2023-05-21T11:11:02;101852.03;;;24.13;52.79
77662;BME280;69666;52.136;5.424;2023-05-21T11:13:47;101849.19;;;24.15;55.83
77662;BME280;69666;52.136;5.424;2023-05-21T11:16:16;101846.03;;;24.21;54.30
77662;BME280;69666;52.136;5.424;2023-05-21T11:21:14;101841.91;;;24.15;54.41
77662;BME280;69666;52.136;5.424;2023-05-21T11:23:54;101843.84;;;24.26;54.29
77662;BME280;69666;52.136;5.424;2023-05-21T11:26:26;101833.19;;;24.47;56.44
77662;BME280;69666;52.136;5.424;2023-05-21T11:31:29;101832.06;;;24.73;52.75
77662;BME280;69666;52.136;5.424;2023-05-21T11:34:20;101826.41;;;24.87;53.30
77662;BME280;69666;52.136;5.424;2023-05-21T11:39:43;101815.03;;;24.58;53.51
77662;BME280;69666;52.136;5.424;2023-05-21T11:42:10;101807.88;;;24.57;52.19
77662;BME280;69666;52.136;5.424;2023-05-21T11:47:09;101809.44;;;24.49;53.67
77662;BME280;69666;52.136;5.424;2023-05-21T11:49:37;101805.03;;;24.59;53.25
77662;BME280;69666;52.136;5.424;2023-05-21T11:52:06;101800.94;;;24.53;53.93
77662;BME280;69666;52.136;5.424;2023-05-21T11:54:38;101806.56;;;24.74;56.44
77662;BME280;69666;52.136;5.424;2023-05-21T11:57:06;101803.09;;;24.72;53.56
77662;BME280;69666;52.136;5.424;2023-05-21T11:59:34;101800.03;;;24.77;54.85
77662;BME280;69666;52.136;5.424;2023-05-21T12:02:03;101793.31;;;24.81;53.84
77662;BME280;69666;52.136;5.424;2023-05-21T12:04:31;101792.28;;;24.94;55.55
77662;BME280;69666;52.136;5.424;2023-05-21T12:07:05;101794.16;;;25.05;54.64
77662;BME280;69666;52.136;5.424;2023-05-21T12:09:40;101790.06;;;25.10;54.61
77662;BME280;69666;52.136;5.424;2023-05-21T12:12:08;101779.44;;;25.19;55.96
77662;BME280;69666;52.136;5.424;2023-05-21T12:14:36;101788.94;;;25.13;53.95
77662;BME280;69666;52.136;5.424;2023-05-21T12:17:04;101783.72;;;25.10;52.42
77662;BME280;69666;52.136;5.424;2023-05-21T12:19:38;101784.22;;;24.93;53.41
77662;BME280;69666;52.136;5.424;2023-05-21T12:22:06;101772.97;;;24.97;54.10
77662;BME280;69666;52.136;5.424;2023-05-21T12:24:33;101783.50;;;25.02;53.52
77662;BME280;69666;52.136;5.424;2023-05-21T12:27:05;101767.38;;;24.99;53.25
77662;BME280;69666;52.136;5.424;2023-05-21T12:29:36;101772.47;;;24.92;53.52
77662;BME280;69666;52.136;5.424;2023-05-21T12:32:08;101769.69;;;24.81;53.01
77662;BME280;69666;52.136;5.424;2023-05-21T12:34:42;101767.19;;;24.78;54.29
77662;BME280;69666;52.136;5.424;2023-05-21T12:37:19;101765.72;;;24.74;54.29
77662;BME280;69666;52.136;5.424;2023-05-21T12:39:53;101773.63;;;24.66;55.26
77662;BME280;69666;52.136;5.424;2023-05-21T12:42:27;101764.81;;;24.51;53.65
77662;BME280;69666;52.136;5.424;2023-05-21T12:45:10;101773.31;;;24.47;54.52
77662;BME280;69666;52.136;5.424;2023-05-21T12:47:37;101769.97;;;24.43;54.17
77662;BME280;69666;52.136;5.424;2023-05-21T12:50:07;101765.75;;;24.39;55.00
77662;BME280;69666;52.136;5.424;2023-05-21T12:52:39;101759.81;;;24.45;54.90
77662;BME280;69666;52.136;5.424;2023-05-21T12:55:08;101762.06;;;24.51;53.92
77662;BME280;69666;52.136;5.424;2023-05-21T12:57:37;101762.91;;;24.41;54.38
77662;BME280;69666;52.136;5.424;2023-05-21T13:00:06;101764.13;;;24.36;54.93
77662;BME280;69666;52.136;5.424;2023-05-21T13:02:38;101761.16;;;24.40;56.97
77662;BME280;69666;52.136;5.424;2023-05-21T13:05:09;101762.38;;;24.35;55.64
77662;BME280;69666;52.136;5.424;2023-05-21T13:07:37;101755.81;;;24.27;55.54
77662;BME280;69666;52.136;5.424;2023-05-21T13:10:06;101766.34;;;24.31;54.98
77662;BME280;69666;52.136;5.424;2023-05-21T13:12:33;101769.69;;;24.35;55.53
77662;BME280;69666;52.136;5.424;2023-05-21T13:15:01;101768.97;;;24.33;55.09
77662;BME280;69666;52.136;5.424;2023-05-21T13:17:28;101763.63;;;24.31;56.91